sensor_id;sensor_type;location;lat;lon;timestamp;pressure;altitude;pressure_sealevel;temperature;humidity
61573;BME280;47465;43.094;12.434;2023-02-18T00:01:16;100239.59;;;6.44;92.77
61573;BME280;47465;43.094;12.434;2023-02-18T00:03:42;100237.75;;;6.36;92.98
61573;BME280;47465;43.094;12.434;2023-02-18T00:06:16;100230.66;;;6.32;93.09
61573;BME280;47465;43.094;12.434;2023-02-18T00:08:44;100225.41;;;6.34;92.54
61573;BME280;47465;43.094;12.434;2023-02-18T00:11:10;100231.75;;;6.50;91.23
61573;BME280;47465;43.094;12.434;2023-02-18T00:13:37;100216.66;;;6.40;91.79
61573;BME280;47465;43.094;12.434;2023-02-18T00:16:04;100218.38;;;6.37;91.52
61573;BME280;47465;43.094;12.434;2023-02-18T00:18:31;100205.22;;;6.41;90.04
61573;BME280;47465;43.094;12.434;2023-02-18T00:20:58;100187.78;;;6.53;88.28
61573;BME280;47465;43.094;12.434;2023-02-18T00:23:25;100220.44;;;6.60;87.03
61573;BME280;47465;43.094;12.434;2023-02-18T00:25:58;100220.28;;;6.48;88.04
61573;BME280;47465;43.094;12.434;2023-02-18T00:28:24;100233.56;;;6.51;88.18
61573;BME280;47465;43.094;12.434;2023-02-18T00:30:50;100204.41;;;6.45;88.04
61573;BME280;47465;43.094;12.434;2023-02-18T00:33:16;100199.00;;;6.35;89.20
61573;BME280;47465;43.094;12.434;2023-02-18T00:35:41;100205.00;;;6.24;90.10
61573;BME280;47465;43.094;12.434;2023-02-18T00:38:07;100218.31;;;6.31;90.18
61573;BME280;47465;43.094;12.434;2023-02-18T00:40:37;100226.41;;;6.45;90.29
61573;BME280;47465;43.094;12.434;2023-02-18T00:43:03;100219.31;;;6.41;90.23
61573;BME280;47465;43.094;12.434;2023-02-18T00:45:29;100218.34;;;6.34;90.70
61573;BME280;47465;43.094;12.434;2023-02-18T00:47:55;100198.06;;;6.32;91.32
61573;BME280;47465;43.094;12.434;2023-02-18T00:50:21;100208.69;;;6.36;92.61
61573;BME280;47465;43.094;12.434;2023-02-18T00:52:47;100199.88;;;6.36;93.13
61573;BME280;47465;43.094;12.434;2023-02-18T00:55:13;100198.94;;;6.32;93.04
61573;BME280;47465;43.094;12.434;2023-02-18T00:57:40;100196.34;;;6.37;92.91
61573;BME280;47465;43.094;12.434;2023-02-18T01:00:07;100216.66;;;6.40;92.94
61573;BME280;47465;43.094;12.434;2023-02-18T01:02:33;100212.22;;;6.35;93.77
61573;BME280;47465;43.094;12.434;2023-02-18T01:04:59;100196.22;;;6.25;93.62
61573;BME280;47465;43.094;12.434;2023-02-18T01:07:25;100210.22;;;6.19;94.23
61573;BME280;47465;43.094;12.434;2023-02-18T01:09:51;100213.75;;;6.18;94.44
61573;BME280;47465;43.094;12.434;2023-02-18T01:12:17;100215.63;;;6.28;94.35
61573;BME280;47465;43.094;12.434;2023-02-18T01:14:44;100209.34;;;6.20;95.58
61573;BME280;47465;43.094;12.434;2023-02-18T01:17:10;100215.56;;;6.24;96.06
61573;BME280;47465;43.094;12.434;2023-02-18T01:19:36;100202.28;;;6.19;95.90
61573;BME280;47465;43.094;12.434;2023-02-18T01:22:02;100203.94;;;6.11;96.21
61573;BME280;47465;43.094;12.434;2023-02-18T01:24:27;100192.47;;;6.07;96.01
61573;BME280;47465;43.094;12.434;2023-02-18T01:26:53;100181.91;;;6.07;96.68
61573;BME280;47465;43.094;12.434;2023-02-18T01:29:19;100193.34;;;6.09;96.67
61573;BME280;47465;43.094;12.434;2023-02-18T01:31:46;100187.25;;;6.12;96.76
61573;BME280;47465;43.094;12.434;2023-02-18T01:34:12;100197.03;;;6.22;96.61
61573;BME280;47465;43.094;12.434;2023-02-18T01:36:38;100163.31;;;6.03;97.40
61573;BME280;47465;43.094;12.434;2023-02-18T01:39:04;100196.13;;;6.20;97.55
61573;BME280;47465;43.094;12.434;2023-02-18T01:41:30;100169.66;;;6.15;96.75
61573;BME280;47465;43.094;12.434;2023-02-18T01:44:16;100194.50;;;6.27;96.37
61573;BME280;47465;43.094;12.434;2023-02-18T01:46:42;100189.19;;;6.25;96.19
61573;BME280;47465;43.094;12.434;2023-02-18T01:49:12;100182.06;;;6.21;96.28
61573;BME280;47465;43.094;12.434;2023-02-18T01:51:41;100186.59;;;6.30;95.27
61573;BME280;47465;43.094;12.434;2023-02-18T01:54:10;100190.03;;;6.24;94.18
61573;BME280;47465;43.094;12.434;2023-02-18T01:56:40;100181.19;;;6.22;92.41
61573;BME280;47465;43.094;12.434;2023-02-18T01:59:12;100181.31;;;6.30;90.24
61573;BME280;47465;43.094;12.434;2023-02-18T02:01:40;100150.38;;;6.21;91.62
61573;BME280;47465;43.094;12.434;2023-02-18T02:04:06;100158.38;;;6.27;92.57
61573;BME280;47465;43.094;12.434;2023-02-18T02:06:34;100161.00;;;6.26;91.17
61573;BME280;47465;43.094;12.434;2023-02-18T02:09:03;100175.16;;;6.32;91.28
61573;BME280;47465;43.094;12.434;2023-02-18T02:11:40;100164.56;;;6.29;92.18
61573;BME280;47465;43.094;12.434;2023-02-18T02:14:19;100174.31;;;6.33;92.64
61573;BME280;47465;43.094;12.434;2023-02-18T02:16:53;100155.63;;;6.18;92.94
61573;BME280;47465;43.094;12.434;2023-02-18T02:19:49;100163.53;;;6.16;93.57
61573;BME280;47465;43.094;12.434;2023-02-18T02:23:01;100143.16;;;6.09;93.96
61573;BME280;47465;43.094;12.434;2023-02-18T02:25:55;100166.19;;;6.18;95.26
61573;BME280;47465;43.094;12.434;2023-02-18T02:28:54;100167.00;;;6.12;96.15
61573;BME280;47465;43.094;12.434;2023-02-18T02:31:53;100150.25;;;6.10;96.32
61573;BME280;47465;43.094;12.434;2023-02-18T02:34:39;100159.00;;;6.09;97.21
61573;BME280;47465;43.094;12.434;2023-02-18T02:37:13;100155.41;;;6.01;97.48
61573;BME280;47465;43.094;12.434;2023-02-18T02:39:44;100145.75;;;6.05;97.49
61573;BME280;47465;43.094;12.434;2023-02-18T02:42:22;100145.00;;;6.15;97.19
61573;BME280;47465;43.094;12.434;2023-02-18T02:44:53;100148.53;;;6.14;98.05
61573;BME280;47465;43.094;12.434;2023-02-18T02:47:26;100143.16;;;6.08;98.52
61573;BME280;47465;43.094;12.434;2023-02-18T02:50:02;100136.97;;;6.06;97.36
61573;BME280;47465;43.094;12.434;2023-02-18T02:52:31;100128.16;;;6.04;97.66
61573;BME280;47465;43.094;12.434;2023-02-18T02:54:57;100127.31;;;6.09;97.46
61573;BME280;47465;43.094;12.434;2023-02-18T02:57:47;100129.09;;;6.07;98.35
61573;BME280;47465;43.094;12.434;2023-02-18T03:00:16;100135.16;;;6.02;98.81
61573;BME280;47465;43.094;12.434;2023-02-18T03:02:55;100124.63;;;6.05;99.33
61573;BME280;47465;43.094;12.434;2023-02-18T03:05:35;100132.59;;;6.09;99.16
61573;BME280;47465;43.094;12.434;2023-02-18T03:08:19;100137.88;;;6.08;98.52
61573;BME280;47465;43.094;12.434;2023-02-18T03:10:55;100125.38;;;5.96;98.18
61573;BME280;47465;43.094;12.434;2023-02-18T03:13:36;100136.91;;;6.01;96.94
61573;BME280;47465;43.094;12.434;2023-02-18T03:16:12;100142.00;;;5.89;97.98
61573;BME280;47465;43.094;12.434;2023-02-18T03:18:43;100111.00;;;5.75;98.29
61573;BME280;47465;43.094;12.434;2023-02-18T03:21:15;100137.16;;;6.20;97.58
61573;BME280;47465;43.094;12.434;2023-02-18T03:23:48;100133.50;;;6.11;96.39
61573;BME280;47465;43.094;12.434;2023-02-18T03:26:18;100147.59;;;6.10;98.40
61573;BME280;47465;43.094;12.434;2023-02-18T03:28:48;100135.19;;;6.05;98.44
61573;BME280;47465;43.094;12.434;2023-02-18T03:31:17;100136.22;;;6.14;97.95
61573;BME280;47465;43.094;12.434;2023-02-18T03:33:49;100121.03;;;5.96;98.50
61573;BME280;47465;43.094;12.434;2023-02-18T03:36:20;100120.22;;;6.04;98.86
61573;BME280;47465;43.094;12.434;2023-02-18T03:38:52;100117.50;;;5.97;99.48
61573;BME280;47465;43.094;12.434;2023-02-18T03:41:19;100143.06;;;5.99;100.00
61573;BME280;47465;43.094;12.434;2023-02-18T03:43:48;100129.06;;;6.06;99.02
61573;BME280;47465;43.094;12.434;2023-02-18T03:46:14;100134.41;;;6.12;99.02
61573;BME280;47465;43.094;12.434;2023-02-18T03:48:40;100147.72;;;6.18;99.17
61573;BME280;47465;43.094;12.434;2023-02-18T03:51:06;100118.38;;;5.98;99.12
61573;BME280;47465;43.094;12.434;2023-02-18T03:53:33;100128.09;;;6.01;98.92
61573;BME280;47465;43.094;12.434;2023-02-18T03:55:59;100120.13;;;5.96;99.63
61573;BME280;47465;43.094;12.434;2023-02-18T03:58:25;100130.78;;;6.04;100.00
61573;BME280;47465;43.094;12.434;2023-02-18T04:00:51;100122.78;;;5.97;100.00
61573;BME280;47465;43.094;12.434;2023-02-18T04:03:16;100140.47;;;6.05;100.00
61573;BME280;47465;43.094;12.434;2023-02-18T04:05:42;100137.81;;;6.05;100.00
61573;BME280;47465;43.094;12.434;2023-02-18T04:08:08;100132.50;;;5.99;100.00
61573;BME280;47465;43.094;12.434;2023-02-18T04:10:35;100137.81;;;6.05;100.00
61573;BME280;47465;43.094;12.434;2023-02-18T04:13:01;100133.47;;;6.05;99.99
61573;BME280;47465;43.094;12.434;2023-02-18T04:15:27;100143.09;;;6.05;99.89
61573;BME280;47465;43.094;12.434;2023-02-18T04:17:53;100152.75;;;6.03;99.44
61573;BME280;47465;43.094;12.434;2023-02-18T04:20:19;100135.06;;;5.95;99.43
61573;BME280;47465;43.094;12.434;2023-02-18T04:22:44;100136.66;;;5.84;98.95
61573;BME280;47465;43.094;12.434;2023-02-18T04:25:10;100118.03;;;5.73;99.59
61573;BME280;47465;43.094;12.434;2023-02-18T04:27:37;100140.13;;;5.83;99.91
61573;BME280;47465;43.094;12.434;2023-02-18T04:30:04;100141.00;;;5.81;100.00
61573;BME280;47465;43.094;12.434;2023-02-18T04:32:31;100140.13;;;5.80;100.00
61573;BME280;47465;43.094;12.434;2023-02-18T04:34:56;100143.66;;;5.82;100.00
61573;BME280;47465;43.094;12.434;2023-02-18T04:37:22;100133.03;;;5.78;100.00
61573;BME280;47465;43.094;12.434;2023-02-18T04:39:48;100115.25;;;5.66;100.00
61573;BME280;47465;43.094;12.434;2023-02-18T04:42:14;100140.94;;;5.76;100.00
61573;BME280;47465;43.094;12.434;2023-02-18T04:44:41;100125.91;;;5.72;100.00
61573;BME280;47465;43.094;12.434;2023-02-18T04:47:07;100130.31;;;5.71;100.00
61573;BME280;47465;43.094;12.434;2023-02-18T04:49:33;100138.34;;;5.79;100.00
61573;BME280;47465;43.094;12.434;2023-02-18T04:51:59;100133.81;;;5.72;100.00
61573;BME280;47465;43.094;12.434;2023-02-18T04:54:25;100120.50;;;5.63;100.00
61573;BME280;47465;43.094;12.434;2023-02-18T04:56:51;100119.53;;;5.56;100.00
61573;BME280;47465;43.094;12.434;2023-02-18T04:59:17;100138.19;;;5.70;100.00
61573;BME280;47465;43.094;12.434;2023-02-18T05:01:44;100129.44;;;5.71;100.00
61573;BME280;47465;43.094;12.434;2023-02-18T05:04:10;100132.06;;;5.71;100.00
61573;BME280;47465;43.094;12.434;2023-02-18T05:06:36;100130.31;;;5.71;100.00
61573;BME280;47465;43.094;12.434;2023-02-18T05:09:04;100133.97;;;5.83;100.00
61573;BME280;47465;43.094;12.434;2023-02-18T05:11:29;100117.16;;;5.73;100.00
61573;BME280;47465;43.094;12.434;2023-02-18T05:13:55;100121.44;;;5.66;100.00
61573;BME280;47465;43.094;12.434;2023-02-18T05:16:21;100120.53;;;5.66;100.00
61573;BME280;47465;43.094;12.434;2023-02-18T05:18:48;100119.63;;;5.64;100.00
61573;BME280;47465;43.094;12.434;2023-02-18T05:21:14;100121.31;;;5.59;100.00
61573;BME280;47465;43.094;12.434;2023-02-18T05:23:40;100113.34;;;5.54;100.00
61573;BME280;47465;43.094;12.434;2023-02-18T05:26:06;100122.38;;;5.71;100.00
61573;BME280;47465;43.094;12.434;2023-02-18T05:28:32;100130.28;;;5.70;100.00
61573;BME280;47465;43.094;12.434;2023-02-18T05:30:58;100131.25;;;5.75;100.00
61573;BME280;47465;43.094;12.434;2023-02-18T05:33:24;100126.78;;;5.71;100.00
61573;BME280;47465;43.094;12.434;2023-02-18T05:35:51;100131.16;;;5.69;100.00
61573;BME280;47465;43.094;12.434;2023-02-18T05:38:17;100125.88;;;5.69;100.00
61573;BME280;47465;43.094;12.434;2023-02-18T05:40:43;100112.56;;;5.61;99.05
61573;BME280;47465;43.094;12.434;2023-02-18T05:43:09;100131.06;;;5.63;99.22
61573;BME280;47465;43.094;12.434;2023-02-18T05:45:35;100131.84;;;5.57;99.33
61573;BME280;47465;43.094;12.434;2023-02-18T05:48:01;100138.16;;;5.67;98.83
61573;BME280;47465;43.094;12.434;2023-02-18T05:50:27;100125.94;;;5.73;98.55
61573;BME280;47465;43.094;12.434;2023-02-18T05:52:54;100139.16;;;5.75;97.46
61573;BME280;47465;43.094;12.434;2023-02-18T05:55:20;100123.88;;;5.52;94.93
61573;BME280;47465;43.094;12.434;2023-02-18T05:57:46;100119.72;;;5.68;93.93
61573;BME280;47465;43.094;12.434;2023-02-18T06:00:13;100123.38;;;5.81;94.36
61573;BME280;47465;43.094;12.434;2023-02-18T06:02:39;100130.41;;;5.78;94.33
61573;BME280;47465;43.094;12.434;2023-02-18T06:05:05;100148.00;;;5.77;94.20
61573;BME280;47465;43.094;12.434;2023-02-18T06:07:31;100121.31;;;5.59;92.99
61573;BME280;47465;43.094;12.434;2023-02-18T06:09:59;100136.44;;;5.69;92.83
61573;BME280;47465;43.094;12.434;2023-02-18T06:12:24;100144.38;;;5.72;93.02
61573;BME280;47465;43.094;12.434;2023-02-18T06:14:50;100127.63;;;5.70;92.42
61573;BME280;47465;43.094;12.434;2023-02-18T06:17:16;100146.31;;;5.82;92.26
61573;BME280;47465;43.094;12.434;2023-02-18T06:19:43;100150.84;;;5.92;91.65
61573;BME280;47465;43.094;12.434;2023-02-18T06:22:09;100129.44;;;5.71;92.07
61573;BME280;47465;43.094;12.434;2023-02-18T06:24:35;100162.25;;;5.90;92.40
61573;BME280;47465;43.094;12.434;2023-02-18T06:27:03;100158.78;;;5.92;92.52
61573;BME280;47465;43.094;12.434;2023-02-18T06:29:29;100139.22;;;5.81;92.90
61573;BME280;47465;43.094;12.434;2023-02-18T06:31:55;100136.66;;;5.84;92.89
61573;BME280;47465;43.094;12.434;2023-02-18T06:34:21;100144.69;;;5.93;93.36
61573;BME280;47465;43.094;12.434;2023-02-18T06:36:47;100150.03;;;5.95;93.78
61573;BME280;47465;43.094;12.434;2023-02-18T06:39:13;100133.97;;;5.83;94.09
61573;BME280;47465;43.094;12.434;2023-02-18T06:41:39;100146.44;;;5.93;94.42
61573;BME280;47465;43.094;12.434;2023-02-18T06:44:07;100149.16;;;5.94;93.43
61573;BME280;47465;43.094;12.434;2023-02-18T06:46:33;100142.03;;;5.90;94.07
61573;BME280;47465;43.094;12.434;2023-02-18T06:48:59;100139.38;;;5.92;94.05
61573;BME280;47465;43.094;12.434;2023-02-18T06:51:25;100158.97;;;6.06;94.39
61573;BME280;47465;43.094;12.434;2023-02-18T06:53:50;100157.31;;;6.13;94.49
61573;BME280;47465;43.094;12.434;2023-02-18T06:56:16;100156.47;;;6.15;94.02
61573;BME280;47465;43.094;12.434;2023-02-18T06:58:42;100155.63;;;6.20;94.29
61573;BME280;47465;43.094;12.434;2023-02-18T07:01:10;100156.59;;;6.26;94.54
61573;BME280;47465;43.094;12.434;2023-02-18T07:03:35;100167.31;;;6.35;94.64
61573;BME280;47465;43.094;12.434;2023-02-18T07:06:01;100149.72;;;6.39;93.02
61573;BME280;47465;43.094;12.434;2023-02-18T07:08:27;100141.69;;;6.30;93.08
61573;BME280;47465;43.094;12.434;2023-02-18T07:10:55;100165.63;;;6.42;93.28
61573;BME280;47465;43.094;12.434;2023-02-18T07:13:21;100159.38;;;6.37;93.40
61573;BME280;47465;43.094;12.434;2023-02-18T07:15:47;100154.13;;;6.42;93.62
61573;BME280;47465;43.094;12.434;2023-02-18T07:18:14;100151.47;;;6.38;93.63
61573;BME280;47465;43.094;12.434;2023-02-18T07:20:40;100145.38;;;6.44;92.12
61573;BME280;47465;43.094;12.434;2023-02-18T07:23:06;100154.25;;;6.52;90.48
61573;BME280;47465;43.094;12.434;2023-02-18T07:25:32;100150.72;;;6.50;90.23
61573;BME280;47465;43.094;12.434;2023-02-18T07:27:58;100153.47;;;6.61;90.11
61573;BME280;47465;43.094;12.434;2023-02-18T07:30:24;100139.38;;;6.57;89.99
61573;BME280;47465;43.094;12.434;2023-02-18T07:32:50;100154.44;;;6.68;90.27
61573;BME280;47465;43.094;12.434;2023-02-18T07:35:17;100139.41;;;6.62;89.88
61573;BME280;47465;43.094;12.434;2023-02-18T07:37:44;100151.81;;;6.69;89.16
61573;BME280;47465;43.094;12.434;2023-02-18T07:40:12;100147.38;;;6.65;88.91
61573;BME280;47465;43.094;12.434;2023-02-18T07:42:38;100174.63;;;6.60;89.63
61573;BME280;47465;43.094;12.434;2023-02-18T07:45:05;100180.88;;;6.66;89.94
61573;BME280;47465;43.094;12.434;2023-02-18T07:47:30;100173.84;;;6.68;89.56
61573;BME280;47465;43.094;12.434;2023-02-18T07:49:56;100156.38;;;6.84;87.79
61573;BME280;47465;43.094;12.434;2023-02-18T07:52:24;100158.09;;;6.79;87.38
61573;BME280;47465;43.094;12.434;2023-02-18T07:54:50;100170.47;;;6.85;87.22
61573;BME280;47465;43.094;12.434;2023-02-18T07:57:15;100183.75;;;6.88;88.41
61573;BME280;47465;43.094;12.434;2023-02-18T07:59:41;100153.72;;;6.81;88.13
61573;BME280;47465;43.094;12.434;2023-02-18T08:02:10;100171.53;;;6.99;87.96
61573;BME280;47465;43.094;12.434;2023-02-18T08:04:39;100176.91;;;7.08;86.06
61573;BME280;47465;43.094;12.434;2023-02-18T08:07:05;100172.50;;;7.10;85.61
61573;BME280;47465;43.094;12.434;2023-02-18T08:09:35;100171.72;;;7.19;84.42
61573;BME280;47465;43.094;12.434;2023-02-18T08:12:00;100158.47;;;7.16;84.42
61573;BME280;47465;43.094;12.434;2023-02-18T08:14:26;100183.31;;;7.36;84.10
61573;BME280;47465;43.094;12.434;2023-02-18T08:16:52;100180.69;;;7.38;83.88
61573;BME280;47465;43.094;12.434;2023-02-18T08:19:19;100162.09;;;7.30;83.88
61573;BME280;47465;43.094;12.434;2023-02-18T08:21:45;100171.91;;;7.42;84.13
61573;BME280;47465;43.094;12.434;2023-02-18T08:24:11;100176.34;;;7.48;84.28
61573;BME280;47465;43.094;12.434;2023-02-18T08:26:40;100166.63;;;7.45;84.40
61573;BME280;47465;43.094;12.434;2023-02-18T08:29:06;100175.47;;;7.50;84.02
61573;BME280;47465;43.094;12.434;2023-02-18T08:31:32;100177.28;;;7.54;83.41
61573;BME280;47465;43.094;12.434;2023-02-18T08:33:59;100161.41;;;7.51;83.46
61573;BME280;47465;43.094;12.434;2023-02-18T08:36:25;100181.75;;;7.57;82.56
61573;BME280;47465;43.094;12.434;2023-02-18T08:38:51;100161.41;;;7.51;82.86
61573;BME280;47465;43.094;12.434;2023-02-18T08:41:17;100195.97;;;7.76;83.15
61573;BME280;47465;43.094;12.434;2023-02-18T08:43:45;100180.03;;;7.70;82.76
61573;BME280;47465;43.094;12.434;2023-02-18T08:46:11;100172.09;;;7.70;82.82
61573;BME280;47465;43.094;12.434;2023-02-18T08:48:37;100173.13;;;7.87;82.18
61573;BME280;47465;43.094;12.434;2023-02-18T08:51:14;100172.25;;;7.90;82.38
61573;BME280;47465;43.094;12.434;2023-02-18T08:53:47;100166.91;;;7.84;82.84
61573;BME280;47465;43.094;12.434;2023-02-18T08:56:14;100166.13;;;8.00;81.78
61573;BME280;47465;43.094;12.434;2023-02-18T08:58:41;100198.00;;;8.17;80.61
61573;BME280;47465;43.094;12.434;2023-02-18T09:01:11;100190.91;;;8.10;81.82
61573;BME280;47465;43.094;12.434;2023-02-18T09:03:37;100190.91;;;8.05;83.55
61573;BME280;47465;43.094;12.434;2023-02-18T09:06:04;100159.03;;;7.90;83.22
61573;BME280;47465;43.094;12.434;2023-02-18T09:08:30;100186.50;;;8.12;83.06
61573;BME280;47465;43.094;12.434;2023-02-18T09:10:57;100174.13;;;8.08;82.76
61573;BME280;47465;43.094;12.434;2023-02-18T09:13:23;100164.41;;;8.05;83.20
61573;BME280;47465;43.094;12.434;2023-02-18T09:15:57;100190.09;;;8.26;82.95
61573;BME280;47465;43.094;12.434;2023-02-18T09:18:25;100174.16;;;8.17;82.84
61573;BME280;47465;43.094;12.434;2023-02-18T09:20:51;100183.03;;;8.23;83.23
61573;BME280;47465;43.094;12.434;2023-02-18T09:23:20;100190.09;;;8.26;83.33
61573;BME280;47465;43.094;12.434;2023-02-18T09:25:46;100187.50;;;8.29;83.20
61573;BME280;47465;43.094;12.434;2023-02-18T09:28:11;100163.53;;;8.12;83.14
61573;BME280;47465;43.094;12.434;2023-02-18T09:30:38;100185.69;;;8.23;82.82
61573;BME280;47465;43.094;12.434;2023-02-18T09:33:04;100183.91;;;8.21;83.18
61573;BME280;47465;43.094;12.434;2023-02-18T09:35:32;100199.88;;;8.33;83.22
61573;BME280;47465;43.094;12.434;2023-02-18T09:37:58;100189.28;;;8.33;82.99
61573;BME280;47465;43.094;12.434;2023-02-18T09:40:26;100169.81;;;8.27;82.35
61573;BME280;47465;43.094;12.434;2023-02-18T09:42:54;100164.47;;;8.23;82.92
61573;BME280;47465;43.094;12.434;2023-02-18T09:45:22;100169.84;;;8.31;82.61
61573;BME280;47465;43.094;12.434;2023-02-18T09:47:49;100170.78;;;8.42;82.49
61573;BME280;47465;43.094;12.434;2023-02-18T09:50:18;100157.56;;;8.44;82.31
61573;BME280;47465;43.094;12.434;2023-02-18T09:52:46;100181.44;;;8.58;81.54
61573;BME280;47465;43.094;12.434;2023-02-18T09:55:18;100161.09;;;8.46;81.37
61573;BME280;47465;43.094;12.434;2023-02-18T09:57:46;100184.13;;;8.61;81.57
61573;BME280;47465;43.094;12.434;2023-02-18T10:00:17;100185.88;;;8.62;81.08
61573;BME280;47465;43.094;12.434;2023-02-18T10:02:52;100174.38;;;8.60;80.73
61573;BME280;47465;43.094;12.434;2023-02-18T10:05:20;100165.53;;;8.50;81.11
61573;BME280;47465;43.094;12.434;2023-02-18T10:07:48;100166.41;;;8.51;80.45
61573;BME280;47465;43.094;12.434;2023-02-18T10:10:17;100194.75;;;8.64;80.51
61573;BME280;47465;43.094;12.434;2023-02-18T10:12:45;100178.78;;;8.52;80.24
61573;BME280;47465;43.094;12.434;2023-02-18T10:15:26;100197.38;;;8.64;80.49
61573;BME280;47465;43.094;12.434;2023-02-18T10:17:53;100169.03;;;8.48;80.76
61573;BME280;47465;43.094;12.434;2023-02-18T10:20:22;100167.28;;;8.50;81.14
61573;BME280;47465;43.094;12.434;2023-02-18T10:22:51;100203.59;;;8.71;80.63
61573;BME280;47465;43.094;12.434;2023-02-18T10:25:21;100196.56;;;8.74;81.04
61573;BME280;47465;43.094;12.434;2023-02-18T10:27:48;100162.03;;;8.65;80.79
61573;BME280;47465;43.094;12.434;2023-02-18T10:30:21;100194.81;;;8.93;80.47
61573;BME280;47465;43.094;12.434;2023-02-18T10:32:51;100185.97;;;8.91;79.71
61573;BME280;47465;43.094;12.434;2023-02-18T10:35:22;100162.97;;;8.89;79.54
61573;BME280;47465;43.094;12.434;2023-02-18T10:37:59;100194.00;;;9.16;79.90
61573;BME280;47465;43.094;12.434;2023-02-18T10:40:32;100193.09;;;9.32;79.33
61573;BME280;47465;43.094;12.434;2023-02-18T10:43:07;100172.75;;;9.36;78.81
61573;BME280;47465;43.094;12.434;2023-02-18T10:45:43;100167.47;;;9.57;78.02
61573;BME280;47465;43.094;12.434;2023-02-18T10:48:28;100169.19;;;9.81;77.15
61573;BME280;47465;43.094;12.434;2023-02-18T10:51:00;100138.22;;;9.85;75.39
61573;BME280;47465;43.094;12.434;2023-02-18T10:53:32;100149.63;;;10.16;74.65
61573;BME280;47465;43.094;12.434;2023-02-18T10:55:59;100158.47;;;10.35;74.28
61573;BME280;47465;43.094;12.434;2023-02-18T10:58:29;100130.97;;;10.39;73.42
61573;BME280;47465;43.094;12.434;2023-02-18T11:00:56;100141.50;;;10.61;72.81
61573;BME280;47465;43.094;12.434;2023-02-18T11:03:23;100140.50;;;10.79;71.64
61573;BME280;47465;43.094;12.434;2023-02-18T11:05:52;100145.72;;;10.93;71.32
61573;BME280;47465;43.094;12.434;2023-02-18T11:08:21;100142.19;;;10.94;70.78
61573;BME280;47465;43.094;12.434;2023-02-18T11:10:49;100113.91;;;10.79;69.78
61573;BME280;47465;43.094;12.434;2023-02-18T11:13:17;100101.44;;;10.84;69.82
61573;BME280;47465;43.094;12.434;2023-02-18T11:15:59;100122.63;;;11.04;70.18
61573;BME280;47465;43.094;12.434;2023-02-18T11:18:29;100134.81;;;11.33;68.98
61573;BME280;47465;43.094;12.434;2023-02-18T11:20:58;100124.06;;;11.40;67.80
61573;BME280;47465;43.094;12.434;2023-02-18T11:23:25;100105.47;;;11.39;67.71
61573;BME280;47465;43.094;12.434;2023-02-18T11:25:58;100119.44;;;11.62;66.31
61573;BME280;47465;43.094;12.434;2023-02-18T11:28:33;100082.22;;;11.53;65.53
61573;BME280;47465;43.094;12.434;2023-02-18T11:31:02;100092.72;;;11.68;65.43
61573;BME280;47465;43.094;12.434;2023-02-18T11:33:33;100103.28;;;11.79;64.87
61573;BME280;47465;43.094;12.434;2023-02-18T11:36:04;100100.59;;;11.79;64.87
61573;BME280;47465;43.094;12.434;2023-02-18T11:38:43;100109.47;;;11.84;65.04
61573;BME280;47465;43.094;12.434;2023-02-18T11:41:14;100089.44;;;11.43;64.80
61573;BME280;47465;43.094;12.434;2023-02-18T11:43:42;100077.00;;;11.42;65.90
61573;BME280;47465;43.094;12.434;2023-02-18T11:46:13;100099.91;;;11.63;66.04
61573;BME280;47465;43.094;12.434;2023-02-18T11:48:39;100083.00;;;11.66;66.11
61573;BME280;47465;43.094;12.434;2023-02-18T11:51:10;100088.47;;;11.50;66.67
61573;BME280;47465;43.094;12.434;2023-02-18T11:53:53;100083.97;;;11.59;66.37
61573;BME280;47465;43.094;12.434;2023-02-18T11:56:21;100067.25;;;11.43;66.01
61573;BME280;47465;43.094;12.434;2023-02-18T11:58:47;100070.75;;;11.45;66.62
61573;BME280;47465;43.094;12.434;2023-02-18T12:01:21;100076.03;;;11.51;67.20
61573;BME280;47465;43.094;12.434;2023-02-18T12:03:57;100028.31;;;11.29;67.14
61573;BME280;47465;43.094;12.434;2023-02-18T12:06:28;100045.09;;;11.39;66.58
61573;BME280;47465;43.094;12.434;2023-02-18T12:09:00;100052.34;;;11.23;67.54
61573;BME280;47465;43.094;12.434;2023-02-18T12:11:32;100065.75;;;11.11;67.99
61573;BME280;47465;43.094;12.434;2023-02-18T12:14:00;100056.91;;;11.07;68.30
61573;BME280;47465;43.094;12.434;2023-02-18T12:16:32;100063.97;;;11.12;68.13
61573;BME280;47465;43.094;12.434;2023-02-18T12:19:12;100062.13;;;11.18;68.45
61573;BME280;47465;43.094;12.434;2023-02-18T12:21:53;100046.22;;;11.15;68.47
61573;BME280;47465;43.094;12.434;2023-02-18T12:24:39;100065.59;;;11.29;68.44
61573;BME280;47465;43.094;12.434;2023-02-18T12:27:17;100025.78;;;11.14;68.97
61573;BME280;47465;43.094;12.434;2023-02-18T12:29:58;100048.72;;;11.30;69.24
61573;BME280;47465;43.094;12.434;2023-02-18T12:32:44;100042.41;;;11.39;69.07
61573;BME280;47465;43.094;12.434;2023-02-18T12:35:37;100017.69;;;11.26;68.47
61573;BME280;47465;43.094;12.434;2023-02-18T12:38:27;100024.75;;;11.30;69.07
61573;BME280;47465;43.094;12.434;2023-02-18T12:41:12;100023.84;;;11.33;68.53
61573;BME280;47465;43.094;12.434;2023-02-18T12:43:50;100022.97;;;11.31;68.30
61573;BME280;47465;43.094;12.434;2023-02-18T12:46:31;100014.31;;;11.10;68.84
61573;BME280;47465;43.094;12.434;2023-02-18T12:49:20;100009.91;;;11.06;68.95
61573;BME280;47465;43.094;12.434;2023-02-18T12:52:09;100021.44;;;11.05;69.75
61573;BME280;47465;43.094;12.434;2023-02-18T12:54:57;100011.66;;;11.06;70.46
61573;BME280;47465;43.094;12.434;2023-02-18T12:57:39;100016.06;;;11.10;70.70
61573;BME280;47465;43.094;12.434;2023-02-18T13:03:52;100016.06;;;11.13;70.23